createdAt,value
2017-08-23T00:00:33.002Z,83.00
2017-08-23T00:03:00.562Z,82.90
2017-08-23T00:05:28.187Z,83.60
2017-08-23T00:07:55.747Z,84.00
2017-08-23T00:10:23.306Z,83.80
2017-08-23T00:12:51.082Z,84.30
2017-08-23T00:15:18.642Z,83.90
2017-08-23T00:17:46.243Z,83.90
2017-08-23T00:20:14.143Z,83.70
2017-08-23T00:22:41.703Z,83.70
2017-08-23T00:25:09.258Z,83.60
2017-08-23T00:27:36.844Z,83.80
2017-08-23T00:30:04.406Z,83.90
2017-08-23T00:32:32.237Z,83.80
2017-08-23T00:34:59.799Z,83.40
2017-08-23T00:37:27.374Z,83.20
2017-08-23T00:39:54.966Z,83.30
2017-08-23T00:42:22.535Z,82.90
2017-08-23T00:44:50.159Z,82.60
2017-08-23T00:47:18.545Z,82.10
2017-08-23T00:49:46.106Z,81.20
2017-08-23T00:52:13.685Z,81.40
2017-08-23T00:54:41.254Z,82.30
2017-08-23T00:57:09.189Z,83.10
2017-08-23T00:59:36.766Z,82.80
2017-08-23T01:02:04.410Z,82.90
2017-08-23T01:04:31.990Z,83.00
2017-08-23T01:06:59.547Z,83.40
2017-08-23T01:09:27.498Z,83.50
2017-08-23T01:11:55.832Z,83.00
2017-08-23T01:14:23.390Z,82.90
2017-08-23T01:16:50.969Z,83.70
2017-08-23T01:19:18.599Z,82.90
2017-08-23T01:21:46.495Z,83.00
2017-08-23T01:24:14.094Z,83.30
2017-08-23T01:26:41.661Z,83.20
2017-08-23T01:29:09.372Z,83.40
2017-08-23T01:31:36.924Z,84.00
2017-08-23T01:34:04.707Z,83.40
2017-08-23T01:36:32.282Z,83.30
2017-08-23T01:38:59.835Z,83.10
2017-08-23T01:41:27.430Z,83.00
2017-08-23T01:43:54.985Z,82.50
2017-08-23T01:46:22.831Z,82.70
2017-08-23T01:48:50.397Z,83.20
2017-08-23T01:51:17.961Z,83.60
2017-08-23T01:53:45.553Z,83.40
2017-08-23T01:56:13.118Z,83.40
2017-08-23T01:58:40.797Z,83.20
2017-08-23T02:01:08.367Z,83.50
2017-08-23T02:03:35.951Z,83.90
2017-08-23T02:06:03.534Z,84.10
2017-08-23T02:08:31.094Z,83.80
2017-08-23T02:10:58.902Z,83.50
2017-08-23T02:13:26.470Z,82.90
2017-08-23T02:15:54.026Z,82.10
2017-08-23T02:18:21.610Z,82.00
2017-08-23T02:20:49.168Z,82.30
2017-08-23T02:23:17.514Z,83.70
2017-08-23T02:25:45.077Z,83.60
2017-08-23T02:28:12.642Z,83.70
2017-08-23T02:30:40.228Z,83.70
2017-08-23T02:33:08.569Z,83.30
2017-08-23T02:35:36.150Z,83.30
2017-08-23T02:38:03.705Z,83.10
2017-08-23T02:40:31.267Z,82.60
2017-08-23T02:42:58.846Z,82.60
2017-08-23T02:45:26.397Z,83.00
2017-08-23T02:47:53.976Z,83.30
2017-08-23T02:50:21.525Z,83.80
2017-08-23T02:52:49.087Z,84.10
2017-08-23T02:55:16.681Z,84.30
2017-08-23T02:57:44.258Z,84.90
2017-08-23T03:00:11.944Z,85.30
2017-08-23T03:02:39.506Z,85.10
2017-08-23T03:05:07.140Z,85.00
2017-08-23T03:07:34.726Z,85.20
2017-08-23T03:10:02.291Z,85.10
2017-08-23T03:12:29.891Z,85.50
2017-08-23T03:14:57.451Z,85.40
2017-08-23T03:17:25.027Z,85.40
2017-08-23T03:19:52.610Z,85.50
2017-08-23T03:22:20.237Z,85.70
2017-08-23T03:24:47.869Z,85.80
2017-08-23T03:27:15.429Z,85.90
2017-08-23T03:29:43.016Z,86.10
2017-08-23T03:32:10.596Z,86.20
2017-08-23T03:34:38.155Z,86.30
2017-08-23T03:37:06.030Z,86.80
2017-08-23T03:39:33.610Z,87.60
2017-08-23T03:42:01.178Z,88.10
2017-08-23T03:44:28.782Z,88.30
2017-08-23T03:46:57.038Z,88.20
2017-08-23T03:49:24.666Z,87.60
2017-08-23T03:51:52.230Z,87.60
2017-08-23T03:54:19.791Z,88.30
2017-08-23T03:56:47.376Z,88.50
2017-08-23T03:59:14.939Z,88.90
2017-08-23T04:01:42.560Z,88.40
2017-08-23T04:04:10.126Z,88.50
2017-08-23T04:06:37.685Z,87.80
2017-08-23T04:09:05.271Z,88.90
2017-08-23T04:11:32.830Z,88.90
2017-08-23T04:14:00.547Z,89.20
2017-08-23T04:16:28.123Z,88.00
2017-08-23T04:18:55.689Z,87.30
2017-08-23T04:21:23.277Z,87.40
2017-08-23T04:23:50.841Z,87.40
2017-08-23T04:26:18.616Z,86.90
2017-08-23T04:28:46.229Z,87.00
2017-08-23T04:31:13.818Z,86.50
2017-08-23T04:33:41.409Z,87.20
2017-08-23T04:36:08.970Z,86.60
2017-08-23T04:38:36.765Z,86.60
2017-08-23T04:41:04.326Z,86.40
2017-08-23T04:43:31.894Z,86.00
2017-08-23T04:45:59.478Z,85.60
2017-08-23T04:48:27.042Z,84.80
2017-08-23T04:50:54.962Z,84.70
2017-08-23T04:53:22.526Z,83.50
2017-08-23T04:55:50.095Z,83.40
2017-08-23T04:58:17.682Z,83.10
2017-08-23T05:00:45.249Z,83.60
2017-08-23T05:03:12.831Z,82.80
2017-08-23T05:05:40.397Z,83.20
2017-08-23T05:08:08.006Z,83.60
2017-08-23T05:10:35.565Z,83.10
2017-08-23T05:13:03.135Z,82.60
2017-08-23T05:15:30.750Z,81.10
2017-08-23T05:17:58.317Z,80.10
2017-08-23T05:20:25.907Z,79.70
2017-08-23T05:22:53.654Z,80.00
2017-08-23T05:25:21.238Z,80.50
2017-08-23T05:27:49.377Z,79.50
2017-08-23T05:30:16.942Z,79.30
2017-08-23T05:32:44.518Z,79.20
2017-08-23T05:35:12.450Z,79.20
2017-08-23T05:37:40.766Z,79.00
2017-08-23T05:40:08.357Z,78.30
2017-08-23T05:42:35.946Z,78.20
2017-08-23T05:45:03.520Z,77.80
2017-08-23T05:47:31.107Z,76.90
2017-08-23T05:49:58.742Z,76.80
2017-08-23T05:52:26.297Z,76.70
2017-08-23T05:54:53.878Z,76.80
2017-08-23T05:57:21.448Z,76.50
2017-08-23T05:59:49.379Z,76.60
2017-08-23T06:02:16.978Z,77.00
2017-08-23T06:04:44.543Z,77.60
2017-08-23T06:07:12.134Z,76.10
2017-08-23T06:09:39.690Z,76.20
2017-08-23T06:12:07.297Z,77.00
2017-08-23T06:14:34.861Z,76.70
2017-08-23T06:17:02.441Z,75.90
2017-08-23T06:19:30.258Z,76.00
2017-08-23T06:21:57.826Z,74.60
2017-08-23T06:24:25.384Z,74.40
2017-08-23T06:26:53.003Z,73.10
2017-08-23T06:29:20.569Z,73.70
2017-08-23T06:31:48.462Z,72.80
2017-08-23T06:34:16.031Z,72.50
2017-08-23T06:36:43.590Z,70.90
2017-08-23T06:39:11.170Z,70.10
2017-08-23T06:41:38.725Z,67.80
2017-08-23T06:44:06.837Z,68.10
2017-08-23T06:46:34.499Z,67.80
2017-08-23T06:49:02.066Z,65.70
2017-08-23T06:51:29.645Z,64.00
2017-08-23T06:53:57.211Z,62.30
2017-08-23T06:56:24.798Z,62.00
2017-08-23T06:58:52.368Z,62.00
2017-08-23T07:01:20.186Z,61.70
2017-08-23T07:03:47.923Z,62.20
2017-08-23T07:06:15.491Z,61.60
2017-08-23T07:08:43.074Z,62.10
2017-08-23T07:11:10.647Z,62.40
2017-08-23T07:13:38.234Z,61.90
2017-08-23T07:16:05.804Z,61.60
2017-08-23T07:18:33.818Z,61.50
2017-08-23T07:21:01.395Z,60.40
2017-08-23T07:23:29.736Z,60.60
2017-08-23T07:25:57.322Z,60.60
2017-08-23T07:28:24.901Z,59.00
2017-08-23T07:30:52.514Z,59.20
2017-08-23T07:33:20.090Z,58.80
2017-08-23T07:35:47.859Z,58.70
2017-08-23T07:38:15.418Z,58.30
2017-08-23T07:40:42.985Z,56.00
2017-08-23T07:43:10.568Z,53.90
2017-08-23T07:45:38.130Z,51.10
2017-08-23T07:48:05.716Z,48.50
2017-08-23T07:50:33.289Z,46.40
2017-08-23T07:53:00.919Z,46.20
2017-08-23T07:55:28.525Z,46.20
2017-08-23T07:57:56.085Z,45.90
2017-08-23T08:00:23.667Z,44.40
2017-08-23T08:02:51.229Z,42.70
2017-08-23T08:05:18.819Z,42.60
2017-08-23T08:07:46.373Z,40.70
2017-08-23T08:10:13.974Z,39.70
2017-08-23T08:12:41.530Z,39.20
2017-08-23T08:15:09.085Z,38.90
2017-08-23T08:17:36.673Z,39.40
2017-08-23T08:20:04.259Z,39.50
2017-08-23T08:22:31.822Z,39.30
2017-08-23T08:24:59.396Z,39.80
2017-08-23T08:27:26.982Z,37.80
2017-08-23T08:29:54.554Z,36.80
2017-08-23T08:32:22.138Z,38.20
2017-08-23T08:34:49.703Z,37.50
2017-08-23T08:37:17.378Z,36.80
2017-08-23T08:39:44.966Z,37.70
2017-08-23T08:42:12.558Z,37.50
2017-08-23T08:44:40.137Z,36.60
2017-08-23T08:47:08.411Z,37.00
2017-08-23T08:49:35.990Z,37.90
2017-08-23T08:52:04.326Z,37.80
2017-08-23T08:54:31.926Z,37.80
2017-08-23T08:56:59.494Z,37.90
2017-08-23T08:59:27.243Z,38.90
2017-08-23T09:01:55.590Z,36.20
2017-08-23T09:04:23.152Z,36.20
2017-08-23T09:06:50.790Z,36.50
2017-08-23T09:09:18.450Z,36.10
2017-08-23T09:11:46.029Z,36.30
2017-08-23T09:14:13.673Z,38.50
2017-08-23T09:16:41.428Z,36.70
2017-08-23T09:19:08.993Z,36.20
2017-08-23T09:21:36.554Z,37.10
2017-08-23T09:24:04.138Z,35.00
2017-08-23T09:26:31.698Z,35.60
2017-08-23T09:28:59.670Z,36.50
2017-08-23T09:31:27.226Z,36.40
2017-08-23T09:33:54.959Z,37.30
2017-08-23T09:36:22.598Z,37.80
2017-08-23T09:38:50.154Z,36.10
2017-08-23T09:41:17.741Z,36.70
2017-08-23T09:43:45.310Z,36.10
2017-08-23T09:46:12.962Z,35.20
2017-08-23T09:48:40.560Z,36.00
2017-08-23T09:51:08.122Z,36.20
2017-08-23T09:53:35.714Z,32.60
2017-08-23T09:56:03.273Z,32.80
2017-08-23T09:58:30.858Z,32.30
2017-08-23T10:00:58.422Z,32.50
2017-08-23T10:03:26.038Z,31.50
2017-08-23T10:05:53.617Z,32.20
2017-08-23T10:08:21.173Z,31.80
2017-08-23T10:10:48.755Z,31.50
2017-08-23T10:13:16.314Z,31.90
2017-08-23T10:15:43.902Z,31.30
2017-08-23T10:18:11.462Z,31.20
2017-08-23T10:20:39.934Z,29.60
2017-08-23T10:23:07.515Z,32.00
2017-08-23T10:25:35.073Z,31.50
2017-08-23T10:28:02.660Z,30.60
2017-08-23T10:30:30.225Z,30.30
2017-08-23T10:32:57.823Z,29.90
2017-08-23T10:35:25.382Z,31.00
2017-08-23T10:37:52.973Z,30.70
2017-08-23T10:40:20.568Z,32.30
2017-08-23T10:42:48.147Z,30.70
2017-08-23T10:45:15.738Z,31.70
2017-08-23T10:47:43.351Z,30.60
2017-08-23T10:50:10.942Z,31.50
2017-08-23T10:52:38.498Z,30.20
2017-08-23T10:55:06.080Z,30.00
2017-08-23T10:57:33.663Z,30.00
2017-08-23T11:00:01.236Z,29.70
2017-08-23T11:02:28.840Z,30.20
2017-08-23T11:04:56.398Z,30.80
2017-08-23T11:07:23.984Z,30.90
2017-08-23T11:09:51.578Z,32.00
2017-08-23T11:12:19.162Z,32.10
2017-08-23T11:14:46.742Z,31.50
2017-08-23T11:17:14.299Z,31.90
2017-08-23T11:19:41.887Z,31.30
2017-08-23T11:22:09.441Z,31.60
2017-08-23T11:24:37.018Z,31.60
2017-08-23T11:27:04.577Z,30.10
2017-08-23T11:29:32.138Z,29.60
2017-08-23T11:31:59.756Z,31.40
2017-08-23T11:34:27.318Z,31.40
2017-08-23T11:36:54.898Z,31.30
2017-08-23T11:39:22.470Z,31.70
2017-08-23T11:41:50.030Z,31.80
2017-08-23T11:44:17.615Z,30.80
2017-08-23T11:46:45.175Z,32.70
2017-08-23T11:49:12.767Z,31.80
2017-08-23T11:51:40.323Z,30.80
2017-08-23T11:54:07.906Z,31.80
2017-08-23T11:56:35.485Z,32.00
2017-08-23T11:59:03.045Z,31.60
2017-08-23T12:01:30.621Z,32.00
2017-08-23T12:03:58.226Z,31.50
2017-08-23T12:06:25.790Z,32.30
2017-08-23T12:08:53.372Z,30.80
2017-08-23T12:11:20.934Z,30.80
2017-08-23T12:13:48.519Z,32.30
2017-08-23T12:16:16.077Z,33.60
2017-08-23T12:18:43.642Z,31.80
2017-08-23T12:21:11.331Z,33.00
2017-08-23T12:23:38.891Z,32.50
2017-08-23T12:26:06.474Z,32.30
2017-08-23T12:28:34.029Z,31.70
2017-08-23T12:31:01.606Z,30.90
2017-08-23T12:33:29.201Z,31.90
2017-08-23T12:35:56.763Z,32.70
2017-08-23T12:38:24.344Z,33.00
2017-08-23T12:40:51.904Z,32.50
2017-08-23T12:43:19.473Z,33.70
2017-08-23T12:45:47.164Z,33.60
2017-08-23T12:48:14.720Z,32.50
2017-08-23T12:50:42.579Z,32.10
2017-08-23T12:53:10.142Z,31.70
2017-08-23T12:55:37.702Z,34.20
2017-08-23T12:58:05.291Z,32.20
2017-08-23T13:00:32.861Z,31.80
2017-08-23T13:03:00.444Z,32.40
2017-08-23T13:05:29.036Z,32.40
2017-08-23T13:07:56.620Z,33.80
2017-08-23T13:10:24.187Z,33.40
2017-08-23T13:12:51.738Z,32.50
2017-08-23T13:15:19.378Z,32.70
2017-08-23T13:17:46.934Z,32.50
2017-08-23T13:20:14.496Z,33.70
2017-08-23T13:22:42.079Z,32.90
2017-08-23T13:25:09.644Z,32.50
2017-08-23T13:27:37.237Z,33.00
2017-08-23T13:30:04.802Z,32.00
2017-08-23T13:32:32.627Z,32.40
2017-08-23T13:35:00.187Z,34.40
2017-08-23T13:37:27.746Z,35.50
2017-08-23T13:39:55.334Z,35.50
2017-08-23T13:42:22.950Z,34.80
2017-08-23T13:44:50.731Z,35.30
2017-08-23T13:47:18.290Z,35.40
2017-08-23T13:49:45.857Z,35.20
2017-08-23T13:52:13.450Z,36.00
2017-08-23T13:54:41.019Z,37.00
2017-08-23T13:57:08.643Z,36.60
2017-08-23T13:59:36.205Z,36.30
2017-08-23T14:02:04.061Z,37.10
2017-08-23T14:04:31.617Z,37.10
2017-08-23T14:06:59.186Z,36.70
2017-08-23T14:09:27.423Z,37.40
2017-08-23T14:11:54.984Z,37.80
2017-08-23T14:14:22.565Z,39.00
2017-08-23T14:16:50.123Z,38.50
2017-08-23T14:19:17.750Z,38.40
2017-08-23T14:21:45.341Z,37.30
2017-08-23T14:24:12.905Z,37.10
2017-08-23T14:26:40.491Z,38.50
2017-08-23T14:29:08.062Z,39.30
2017-08-23T14:31:35.660Z,38.20
2017-08-23T14:34:03.217Z,38.80
2017-08-23T14:36:31.009Z,40.20
2017-08-23T14:38:58.572Z,40.60
2017-08-23T14:41:26.142Z,40.50
2017-08-23T14:43:53.786Z,39.30
2017-08-23T14:46:21.354Z,39.20
2017-08-23T14:48:48.933Z,40.70
2017-08-23T14:51:16.485Z,40.10
2017-08-23T14:53:44.094Z,39.70
2017-08-23T14:56:11.658Z,40.60
2017-08-23T14:58:39.218Z,40.20
2017-08-23T15:01:06.808Z,40.00
2017-08-23T15:03:34.381Z,40.20
2017-08-23T15:06:01.966Z,40.30
2017-08-23T15:08:29.538Z,41.10
2017-08-23T15:10:57.191Z,41.60
2017-08-23T15:13:24.769Z,40.10
2017-08-23T15:15:52.330Z,39.80
2017-08-23T15:18:20.127Z,41.10
2017-08-23T15:20:47.730Z,39.80
2017-08-23T15:23:15.346Z,40.20
2017-08-23T15:25:42.908Z,41.80
2017-08-23T15:28:10.488Z,41.90
2017-08-23T15:30:38.058Z,41.90
2017-08-23T15:33:05.665Z,41.10
2017-08-23T15:35:33.241Z,40.80
2017-08-23T15:38:00.817Z,41.60
2017-08-23T15:40:28.401Z,42.70
2017-08-23T15:42:55.965Z,41.50
2017-08-23T15:45:23.545Z,40.40
2017-08-23T15:47:51.109Z,41.70
2017-08-23T15:50:18.723Z,42.50
2017-08-23T15:52:46.278Z,42.80
2017-08-23T15:55:13.832Z,42.10
2017-08-23T15:57:41.434Z,41.00
2017-08-23T16:00:08.994Z,41.00
2017-08-23T16:02:36.578Z,43.10
2017-08-23T16:05:04.142Z,42.60
2017-08-23T16:07:31.926Z,42.70
2017-08-23T16:09:59.474Z,43.40
2017-08-23T16:12:27.066Z,42.70
2017-08-23T16:14:54.649Z,43.30
2017-08-23T16:17:22.210Z,43.60
2017-08-23T16:19:49.786Z,43.50
2017-08-23T16:22:17.354Z,44.70
2017-08-23T16:24:45.126Z,44.30
2017-08-23T16:27:12.683Z,45.40
2017-08-23T16:29:40.340Z,44.30
2017-08-23T16:32:07.942Z,44.60
2017-08-23T16:34:35.503Z,45.40
2017-08-23T16:37:03.084Z,45.90
2017-08-23T16:39:30.797Z,46.20
2017-08-23T16:41:58.487Z,45.80
2017-08-23T16:44:26.046Z,46.10
2017-08-23T16:46:53.610Z,46.30
2017-08-23T16:49:21.185Z,45.90
2017-08-23T16:51:48.750Z,46.10
2017-08-23T16:54:16.338Z,46.30
2017-08-23T16:56:43.903Z,45.80
2017-08-23T16:59:11.669Z,45.90
2017-08-23T17:01:39.234Z,46.20
2017-08-23T17:04:06.801Z,46.20
2017-08-23T17:06:34.394Z,46.30
2017-08-23T17:09:01.963Z,46.50
2017-08-23T17:11:29.848Z,47.00
2017-08-23T17:13:57.424Z,47.40
2017-08-23T17:16:25.038Z,47.10
2017-08-23T17:18:52.626Z,47.80
2017-08-23T17:21:20.210Z,47.40
2017-08-23T17:23:47.810Z,48.00
2017-08-23T17:26:15.717Z,47.70
2017-08-23T17:28:43.318Z,47.90
2017-08-23T17:31:10.889Z,48.20
2017-08-23T17:33:38.787Z,48.70
2017-08-23T17:36:06.379Z,48.70
2017-08-23T17:38:33.950Z,48.80
2017-08-23T17:41:01.540Z,49.10
2017-08-23T17:43:29.145Z,49.20
2017-08-23T17:45:56.775Z,49.50
2017-08-23T17:48:24.339Z,49.70
2017-08-23T17:50:52.257Z,49.70
2017-08-23T17:53:19.821Z,50.10
2017-08-23T17:55:47.387Z,50.40
2017-08-23T17:58:14.976Z,50.60
2017-08-23T18:00:42.546Z,51.10
2017-08-23T18:03:10.134Z,50.90
2017-08-23T18:05:37.720Z,51.50
2017-08-23T18:08:06.796Z,51.90
2017-08-23T18:10:34.394Z,52.10
2017-08-23T18:13:01.971Z,52.60
2017-08-23T18:15:29.559Z,52.70
2017-08-23T18:17:57.110Z,53.10
2017-08-23T18:20:24.698Z,53.50
2017-08-23T18:22:52.258Z,53.70
2017-08-23T18:25:20.090Z,53.80
2017-08-23T18:27:47.653Z,54.50
2017-08-23T18:30:15.215Z,54.70
2017-08-23T18:32:42.824Z,55.00
2017-08-23T18:35:10.417Z,55.10
2017-08-23T18:37:38.019Z,55.50
2017-08-23T18:40:06.069Z,55.40
2017-08-23T18:42:33.870Z,55.70
2017-08-23T18:45:01.436Z,55.90
2017-08-23T18:47:28.998Z,55.90
2017-08-23T18:49:57.404Z,56.60
2017-08-23T18:52:24.974Z,56.60
2017-08-23T18:54:53.452Z,56.70
2017-08-23T18:57:21.024Z,56.50
2017-08-23T18:59:48.843Z,56.40
2017-08-23T19:02:16.413Z,56.50
2017-08-23T19:04:44.014Z,56.70
2017-08-23T19:07:11.612Z,56.50
2017-08-23T19:09:39.329Z,57.00
2017-08-23T19:12:06.975Z,57.00
2017-08-23T19:14:34.545Z,57.10
2017-08-23T19:17:02.356Z,57.40
2017-08-23T19:19:29.933Z,57.20
2017-08-23T19:21:57.762Z,58.10
2017-08-23T19:24:25.442Z,57.70
2017-08-23T19:26:53.022Z,58.00
2017-08-23T19:29:20.622Z,58.90
2017-08-23T19:31:48.214Z,59.00
2017-08-23T19:34:15.850Z,58.80
2017-08-23T19:36:43.496Z,58.90
2017-08-23T19:39:11.064Z,59.00
2017-08-23T19:41:38.923Z,59.70
2017-08-23T19:44:06.492Z,60.20
2017-08-23T19:46:34.078Z,60.50
2017-08-23T19:49:01.739Z,60.30
2017-08-23T19:51:30.461Z,60.80
2017-08-23T19:53:58.066Z,60.50
2017-08-23T19:56:25.668Z,60.80
2017-08-23T19:58:53.352Z,61.10
2017-08-23T20:01:20.923Z,61.90
2017-08-23T20:03:48.522Z,62.30
2017-08-23T20:06:16.102Z,62.50
2017-08-23T20:08:43.959Z,62.80
2017-08-23T20:11:11.534Z,63.40
2017-08-23T20:13:39.173Z,63.40
2017-08-23T20:16:06.779Z,63.90
2017-08-23T20:18:34.359Z,64.40
2017-08-23T20:21:01.958Z,64.40
2017-08-23T20:23:29.537Z,64.50
2017-08-23T20:25:57.387Z,64.70
2017-08-23T20:28:24.963Z,65.10
2017-08-23T20:30:52.542Z,65.30
2017-08-23T20:33:20.172Z,65.20
2017-08-23T20:35:47.744Z,65.30
2017-08-23T20:38:15.491Z,66.10
2017-08-23T20:40:43.119Z,65.30
2017-08-23T20:43:10.681Z,65.10
2017-08-23T20:45:38.281Z,65.20
2017-08-23T20:48:05.866Z,65.00
2017-08-23T20:50:33.489Z,65.60
2017-08-23T20:53:01.120Z,65.00
2017-08-23T20:55:28.738Z,65.10
2017-08-23T20:57:56.326Z,64.90
2017-08-23T21:00:23.886Z,64.90
2017-08-23T21:02:51.474Z,64.60
2017-08-23T21:05:19.043Z,64.00
2017-08-23T21:07:46.784Z,64.20
2017-08-23T21:10:14.346Z,64.30
2017-08-23T21:12:42.133Z,63.80
2017-08-23T21:15:09.699Z,64.10
2017-08-23T21:17:37.263Z,63.80
2017-08-23T21:20:04.861Z,65.00
2017-08-23T21:22:32.417Z,64.80
2017-08-23T21:24:59.997Z,64.80
2017-08-23T21:27:27.572Z,64.50
2017-08-23T21:29:55.465Z,64.30
2017-08-23T21:32:23.027Z,64.40
2017-08-23T21:34:50.587Z,65.50
2017-08-23T21:37:18.174Z,65.20
2017-08-23T21:39:45.733Z,64.60
2017-08-23T21:42:13.331Z,64.30
2017-08-23T21:44:40.882Z,65.70
2017-08-23T21:47:08.670Z,65.00
2017-08-23T21:49:36.313Z,65.60
2017-08-23T21:52:03.883Z,65.10
2017-08-23T21:54:31.465Z,65.60
2017-08-23T21:56:59.052Z,65.90
2017-08-23T21:59:26.646Z,65.90
2017-08-23T22:01:54.199Z,66.50
2017-08-23T22:04:21.998Z,66.70
2017-08-23T22:06:49.564Z,65.70
2017-08-23T22:09:17.170Z,66.70
2017-08-23T22:11:44.759Z,66.90
2017-08-23T22:14:12.329Z,66.50
2017-08-23T22:16:39.914Z,67.60
2017-08-23T22:19:08.276Z,68.20
2017-08-23T22:21:35.913Z,68.20
2017-08-23T22:24:03.473Z,68.20
2017-08-23T22:26:31.043Z,68.70
2017-08-23T22:28:58.630Z,68.60
2017-08-23T22:31:26.199Z,68.80
2017-08-23T22:33:54.544Z,69.70
2017-08-23T22:36:22.101Z,70.40
2017-08-23T22:38:49.871Z,70.10
2017-08-23T22:41:17.428Z,70.20
2017-08-23T22:43:44.987Z,70.30
2017-08-23T22:46:12.575Z,69.60
2017-08-23T22:48:40.138Z,69.80
2017-08-23T22:51:07.727Z,69.70
2017-08-23T22:53:35.286Z,70.30
2017-08-23T22:56:03.033Z,70.10
2017-08-23T22:58:30.601Z,70.20
2017-08-23T23:00:58.202Z,70.30
2017-08-23T23:03:25.798Z,69.40
2017-08-23T23:05:53.365Z,70.00
2017-08-23T23:08:20.946Z,69.40
2017-08-23T23:10:48.506Z,69.90
2017-08-23T23:13:16.519Z,69.30
2017-08-23T23:15:44.085Z,69.40
2017-08-23T23:18:11.653Z,70.10
2017-08-23T23:20:39.249Z,71.40
2017-08-23T23:23:06.814Z,72.10
2017-08-23T23:25:34.393Z,71.70
2017-08-23T23:28:01.955Z,72.30
2017-08-23T23:30:29.743Z,72.30
2017-08-23T23:32:57.311Z,72.20
2017-08-23T23:35:24.905Z,72.70
2017-08-23T23:37:52.491Z,73.70
2017-08-23T23:40:20.054Z,73.50
2017-08-23T23:42:47.664Z,73.40
2017-08-23T23:45:15.226Z,73.10
2017-08-23T23:47:42.789Z,73.30
2017-08-23T23:50:10.369Z,73.50
2017-08-23T23:52:37.926Z,74.10
2017-08-23T23:55:05.518Z,74.40
2017-08-23T23:57:33.077Z,75.00
